sensor_id;sensor_type;location;lat;lon;timestamp;pressure;altitude;pressure_sealevel;temperature;humidity
37066;BME280;22981;43.080;25.550;2024-02-26T00:01:32;99133.08;;;12.05;68.34
37066;BME280;22981;43.080;25.550;2024-02-26T00:04:00;99133.60;;;12.05;68.27
37066;BME280;22981;43.080;25.550;2024-02-26T00:06:29;99134.14;;;12.04;68.19
37066;BME280;22981;43.080;25.550;2024-02-26T00:08:58;99081.39;;;11.72;68.14
37066;BME280;22981;43.080;25.550;2024-02-26T00:11:25;99124.15;;;12.02;68.08
37066;BME280;22981;43.080;25.550;2024-02-26T00:13:53;99125.21;;;12.01;68.00
37066;BME280;22981;43.080;25.550;2024-02-26T00:16:20;99126.02;;;12.01;67.82
37066;BME280;22981;43.080;25.550;2024-02-26T00:18:48;99127.61;;;12.00;67.71
37066;BME280;22981;43.080;25.550;2024-02-26T00:21:15;99126.17;;;11.95;67.67
37066;BME280;22981;43.080;25.550;2024-02-26T00:23:43;99116.96;;;11.91;67.80
37066;BME280;22981;43.080;25.550;2024-02-26T00:26:10;99112.00;;;11.85;67.89
37066;BME280;22981;43.080;25.550;2024-02-26T00:28:38;99114.02;;;11.81;68.02
37066;BME280;22981;43.080;25.550;2024-02-26T00:31:06;99103.01;;;11.79;68.05
37066;BME280;22981;43.080;25.550;2024-02-26T00:33:33;99115.08;;;11.79;67.87
37066;BME280;22981;43.080;25.550;2024-02-26T00:36:01;99106.96;;;11.77;67.62
37066;BME280;22981;43.080;25.550;2024-02-26T00:38:28;99103.72;;;11.75;67.58
37066;BME280;22981;43.080;25.550;2024-02-26T00:40:56;99104.77;;;11.74;67.56
37066;BME280;22981;43.080;25.550;2024-02-26T00:43:24;99098.60;;;11.73;67.11
37066;BME280;22981;43.080;25.550;2024-02-26T00:45:51;99105.75;;;11.82;66.19
37066;BME280;22981;43.080;25.550;2024-02-26T00:48:19;99096.13;;;11.95;65.14
37066;BME280;22981;43.080;25.550;2024-02-26T00:50:46;99095.33;;;12.09;63.82
37066;BME280;22981;43.080;25.550;2024-02-26T00:53:14;99092.42;;;12.25;62.27
37066;BME280;22981;43.080;25.550;2024-02-26T00:55:41;99081.61;;;12.37;61.51
37066;BME280;22981;43.080;25.550;2024-02-26T00:58:10;99083.16;;;12.47;60.67
37066;BME280;22981;43.080;25.550;2024-02-26T01:00:37;99078.69;;;12.52;60.33
37066;BME280;22981;43.080;25.550;2024-02-26T01:03:05;99080.11;;;12.58;59.90
37066;BME280;22981;43.080;25.550;2024-02-26T01:05:32;99073.20;;;12.62;59.38
37066;BME280;22981;43.080;25.550;2024-02-26T01:08:00;99067.30;;;12.62;59.31
37066;BME280;22981;43.080;25.550;2024-02-26T01:10:27;99076.75;;;12.65;59.19
37066;BME280;22981;43.080;25.550;2024-02-26T01:12:55;99071.66;;;12.66;58.92
37066;BME280;22981;43.080;25.550;2024-02-26T01:15:23;99069.56;;;12.68;58.73
37066;BME280;22981;43.080;25.550;2024-02-26T01:17:50;99068.58;;;12.74;58.37
37066;BME280;22981;43.080;25.550;2024-02-26T01:20:18;99074.31;;;12.80;58.36
37066;BME280;22981;43.080;25.550;2024-02-26T01:22:46;99068.71;;;12.82;58.29
37066;BME280;22981;43.080;25.550;2024-02-26T01:25:13;99071.14;;;12.83;58.30
37066;BME280;22981;43.080;25.550;2024-02-26T01:27:42;99071.22;;;12.88;58.09
37066;BME280;22981;43.080;25.550;2024-02-26T01:30:10;99065.63;;;12.90;58.06
37066;BME280;22981;43.080;25.550;2024-02-26T01:32:38;99065.63;;;12.90;58.22
37066;BME280;22981;43.080;25.550;2024-02-26T01:35:06;99056.75;;;12.89;58.40
37066;BME280;22981;43.080;25.550;2024-02-26T01:37:38;99057.25;;;12.89;58.56
37066;BME280;22981;43.080;25.550;2024-02-26T01:40:07;99057.18;;;12.84;58.63
37066;BME280;22981;43.080;25.550;2024-02-26T01:42:40;99053.96;;;12.84;58.78
37066;BME280;22981;43.080;25.550;2024-02-26T01:45:12;99053.68;;;12.83;58.79
37066;BME280;22981;43.080;25.550;2024-02-26T01:47:38;99059.84;;;12.81;58.90
37066;BME280;22981;43.080;25.550;2024-02-26T01:50:06;99050.92;;;12.78;58.96
37066;BME280;22981;43.080;25.550;2024-02-26T01:52:35;99045.80;;;12.76;58.89
37066;BME280;22981;43.080;25.550;2024-02-26T01:55:02;99049.83;;;12.76;58.77
37066;BME280;22981;43.080;25.550;2024-02-26T01:57:30;99051.45;;;12.77;58.76
37066;BME280;22981;43.080;25.550;2024-02-26T01:59:57;99051.98;;;12.77;58.80
37066;BME280;22981;43.080;25.550;2024-02-26T02:02:25;99048.71;;;12.75;58.82
37066;BME280;22981;43.080;25.550;2024-02-26T02:04:53;99046.30;;;12.76;58.68
37066;BME280;22981;43.080;25.550;2024-02-26T02:07:22;99048.23;;;12.78;58.65
37066;BME280;22981;43.080;25.550;2024-02-26T02:09:50;99050.64;;;12.77;58.61
37066;BME280;22981;43.080;25.550;2024-02-26T02:12:18;99050.33;;;12.76;58.62
37066;BME280;22981;43.080;25.550;2024-02-26T02:14:46;99050.33;;;12.76;58.42
37066;BME280;22981;43.080;25.550;2024-02-26T02:17:14;99043.92;;;12.77;58.31
37066;BME280;22981;43.080;25.550;2024-02-26T02:19:41;99048.71;;;12.75;58.35
37066;BME280;22981;43.080;25.550;2024-02-26T02:22:09;99055.15;;;12.74;58.35
37066;BME280;22981;43.080;25.550;2024-02-26T02:24:36;99047.30;;;12.70;58.42
37066;BME280;22981;43.080;25.550;2024-02-26T02:27:04;99043.19;;;12.65;58.67
37066;BME280;22981;43.080;25.550;2024-02-26T02:29:32;99055.80;;;12.64;58.66
37066;BME280;22981;43.080;25.550;2024-02-26T02:32:01;99054.46;;;12.64;58.52
37066;BME280;22981;43.080;25.550;2024-02-26T02:34:31;99054.15;;;12.63;58.54
37066;BME280;22981;43.080;25.550;2024-02-26T02:37:00;99055.49;;;12.63;58.53
37066;BME280;22981;43.080;25.550;2024-02-26T02:39:28;99055.55;;;12.66;58.40
37066;BME280;22981;43.080;25.550;2024-02-26T02:41:55;99053.92;;;12.65;58.48
37066;BME280;22981;43.080;25.550;2024-02-26T02:44:23;99052.11;;;12.68;58.44
37066;BME280;22981;43.080;25.550;2024-02-26T02:46:50;99050.98;;;12.66;58.52
37066;BME280;22981;43.080;25.550;2024-02-26T02:49:19;99055.07;;;12.69;58.36
37066;BME280;22981;43.080;25.550;2024-02-26T02:51:48;99052.72;;;12.72;58.22
37066;BME280;22981;43.080;25.550;2024-02-26T02:54:16;99051.40;;;12.75;58.22
37066;BME280;22981;43.080;25.550;2024-02-26T02:56:43;99053.33;;;12.77;58.15
37066;BME280;22981;43.080;25.550;2024-02-26T02:59:11;99057.38;;;12.79;58.07
37066;BME280;22981;43.080;25.550;2024-02-26T03:01:39;99060.59;;;12.79;58.21
37066;BME280;22981;43.080;25.550;2024-02-26T03:04:06;99060.32;;;12.78;58.38
37066;BME280;22981;43.080;25.550;2024-02-26T03:06:34;99071.55;;;12.75;58.52
37066;BME280;22981;43.080;25.550;2024-02-26T03:09:02;99069.39;;;12.74;58.63
37066;BME280;22981;43.080;25.550;2024-02-26T03:11:29;99068.83;;;12.72;58.73
37066;BME280;22981;43.080;25.550;2024-02-26T03:13:57;99070.38;;;12.68;58.93
37066;BME280;22981;43.080;25.550;2024-02-26T03:16:24;99068.72;;;12.67;59.08
37066;BME280;22981;43.080;25.550;2024-02-26T03:18:52;99076.55;;;12.69;59.18
37066;BME280;22981;43.080;25.550;2024-02-26T03:21:20;99078.43;;;12.68;59.26
37066;BME280;22981;43.080;25.550;2024-02-26T03:23:47;99068.45;;;12.66;59.50
37066;BME280;22981;43.080;25.550;2024-02-26T03:26:15;99073.20;;;12.62;59.72
37066;BME280;22981;43.080;25.550;2024-02-26T03:28:42;99079.22;;;12.52;60.05
37066;BME280;22981;43.080;25.550;2024-02-26T03:31:10;99084.16;;;12.43;60.38
37066;BME280;22981;43.080;25.550;2024-02-26T03:33:38;99080.27;;;12.37;60.56
37066;BME280;22981;43.080;25.550;2024-02-26T03:36:06;99075.64;;;12.46;60.21
37066;BME280;22981;43.080;25.550;2024-02-26T03:38:34;99073.51;;;12.48;60.26
37066;BME280;22981;43.080;25.550;2024-02-26T03:41:01;99071.61;;;12.46;60.33
37066;BME280;22981;43.080;25.550;2024-02-26T03:43:29;99062.30;;;12.51;59.90
37066;BME280;22981;43.080;25.550;2024-02-26T03:45:56;99061.91;;;12.60;59.58
37066;BME280;22981;43.080;25.550;2024-02-26T03:48:24;99060.36;;;12.64;59.36
37066;BME280;22981;43.080;25.550;2024-02-26T03:50:52;99063.88;;;12.67;59.21
37066;BME280;22981;43.080;25.550;2024-02-26T03:53:19;99063.46;;;12.72;58.97
37066;BME280;22981;43.080;25.550;2024-02-26T03:55:47;99059.23;;;12.76;58.79
37066;BME280;22981;43.080;25.550;2024-02-26T03:58:15;99062.53;;;12.81;58.62
37066;BME280;22981;43.080;25.550;2024-02-26T04:00:43;99066.05;;;12.84;58.48
37066;BME280;22981;43.080;25.550;2024-02-26T04:03:11;99062.07;;;12.87;58.38
37066;BME280;22981;43.080;25.550;2024-02-26T04:05:38;99069.93;;;12.91;58.28
37066;BME280;22981;43.080;25.550;2024-02-26T04:08:06;99071.27;;;12.91;58.36
37066;BME280;22981;43.080;25.550;2024-02-26T04:10:34;99065.04;;;12.88;58.45
37066;BME280;22981;43.080;25.550;2024-02-26T04:13:03;99063.42;;;12.87;58.50
37066;BME280;22981;43.080;25.550;2024-02-26T04:15:31;99065.83;;;12.86;58.54
37066;BME280;22981;43.080;25.550;2024-02-26T04:17:59;99066.66;;;12.89;58.36
37066;BME280;22981;43.080;25.550;2024-02-26T04:20:27;99071.00;;;12.90;58.25
37066;BME280;22981;43.080;25.550;2024-02-26T04:22:54;99077.45;;;12.91;58.30
37066;BME280;22981;43.080;25.550;2024-02-26T04:25:22;99069.55;;;12.85;58.63
37066;BME280;22981;43.080;25.550;2024-02-26T04:27:49;99066.42;;;12.73;59.11
37066;BME280;22981;43.080;25.550;2024-02-26T04:30:17;99057.37;;;12.63;59.63
37066;BME280;22981;43.080;25.550;2024-02-26T04:35:11;99067.86;;;12.47;60.30
37066;BME280;22981;43.080;25.550;2024-02-26T04:37:39;99070.46;;;12.42;60.54
37066;BME280;22981;43.080;25.550;2024-02-26T04:40:07;99072.00;;;12.38;60.73
37066;BME280;22981;43.080;25.550;2024-02-26T04:42:34;99078.12;;;12.36;60.91
37066;BME280;22981;43.080;25.550;2024-02-26T04:45:02;99076.75;;;12.34;60.98
37066;BME280;22981;43.080;25.550;2024-02-26T04:47:30;99074.34;;;12.35;61.08
37066;BME280;22981;43.080;25.550;2024-02-26T04:49:57;99072.13;;;12.32;61.18
37066;BME280;22981;43.080;25.550;2024-02-26T04:52:26;99072.38;;;12.30;61.25
37066;BME280;22981;43.080;25.550;2024-02-26T04:54:53;99077.47;;;12.29;61.32
37066;BME280;22981;43.080;25.550;2024-02-26T04:57:22;99074.47;;;12.28;61.40
37066;BME280;22981;43.080;25.550;2024-02-26T04:59:50;99075.28;;;12.28;61.42
37066;BME280;22981;43.080;25.550;2024-02-26T05:02:17;99077.22;;;12.31;61.30
37066;BME280;22981;43.080;25.550;2024-02-26T05:04:45;99070.53;;;12.33;61.22
37066;BME280;22981;43.080;25.550;2024-02-26T05:07:12;99079.93;;;12.33;61.24
37066;BME280;22981;43.080;25.550;2024-02-26T05:09:40;99080.58;;;12.38;61.10
37066;BME280;22981;43.080;25.550;2024-02-26T05:12:10;99088.81;;;12.48;60.73
37066;BME280;22981;43.080;25.550;2024-02-26T05:14:37;99092.73;;;12.57;60.40
37066;BME280;22981;43.080;25.550;2024-02-26T05:17:05;99087.22;;;12.64;60.21
37066;BME280;22981;43.080;25.550;2024-02-26T05:19:32;99085.63;;;12.65;60.22
37066;BME280;22981;43.080;25.550;2024-02-26T05:22:00;99087.50;;;12.65;60.24
37066;BME280;22981;43.080;25.550;2024-02-26T05:24:28;99088.03;;;12.64;60.28
37066;BME280;22981;43.080;25.550;2024-02-26T05:26:55;99087.30;;;12.69;60.12
37066;BME280;22981;43.080;25.550;2024-02-26T05:29:23;99079.32;;;12.74;59.93
37066;BME280;22981;43.080;25.550;2024-02-26T05:31:50;99080.94;;;12.75;59.81
37066;BME280;22981;43.080;25.550;2024-02-26T05:34:19;99087.73;;;12.80;59.64
37066;BME280;22981;43.080;25.550;2024-02-26T05:36:48;99089.70;;;12.85;59.47
37066;BME280;22981;43.080;25.550;2024-02-26T05:39:16;99093.86;;;12.92;59.13
37066;BME280;22981;43.080;25.550;2024-02-26T05:41:43;99108.20;;;12.98;59.00
37066;BME280;22981;43.080;25.550;2024-02-26T05:44:12;99098.34;;;13.03;58.71
37066;BME280;22981;43.080;25.550;2024-02-26T05:46:41;99105.95;;;13.09;58.45
37066;BME280;22981;43.080;25.550;2024-02-26T05:49:08;99098.83;;;13.17;58.16
37066;BME280;22981;43.080;25.550;2024-02-26T05:51:36;99103.44;;;13.19;58.09
37066;BME280;22981;43.080;25.550;2024-02-26T05:54:03;99107.50;;;13.22;57.92
37066;BME280;22981;43.080;25.550;2024-02-26T05:56:31;99110.88;;;13.29;57.73
37066;BME280;22981;43.080;25.550;2024-02-26T05:58:59;99108.46;;;13.30;57.70
37066;BME280;22981;43.080;25.550;2024-02-26T06:01:26;99111.95;;;13.31;57.68
37066;BME280;22981;43.080;25.550;2024-02-26T06:03:54;99110.89;;;13.32;57.55
37066;BME280;22981;43.080;25.550;2024-02-26T06:06:21;99112.03;;;13.36;57.54
37066;BME280;22981;43.080;25.550;2024-02-26T06:08:50;99122.02;;;13.38;57.56
37066;BME280;22981;43.080;25.550;2024-02-26T06:11:18;99119.08;;;13.39;57.98
37066;BME280;22981;43.080;25.550;2024-02-26T06:13:45;99120.95;;;13.39;58.38
37066;BME280;22981;43.080;25.550;2024-02-26T06:16:13;99120.42;;;13.39;58.50
37066;BME280;22981;43.080;25.550;2024-02-26T06:18:41;99117.20;;;13.40;58.61
37066;BME280;22981;43.080;25.550;2024-02-26T06:21:11;99119.36;;;13.40;58.92
37066;BME280;22981;43.080;25.550;2024-02-26T06:23:39;99114.03;;;13.43;58.99
37066;BME280;22981;43.080;25.550;2024-02-26T06:26:07;99120.22;;;13.43;59.01
37066;BME280;22981;43.080;25.550;2024-02-26T06:28:34;99121.34;;;13.45;59.08
37066;BME280;22981;43.080;25.550;2024-02-26T06:31:02;99118.44;;;13.49;59.21
37066;BME280;22981;43.080;25.550;2024-02-26T06:33:30;99122.77;;;13.52;59.11
37066;BME280;22981;43.080;25.550;2024-02-26T06:35:57;99122.28;;;13.56;58.86
37066;BME280;22981;43.080;25.550;2024-02-26T06:38:25;99119.64;;;13.58;58.88
37066;BME280;22981;43.080;25.550;2024-02-26T06:40:52;99118.57;;;13.59;59.05
37066;BME280;22981;43.080;25.550;2024-02-26T06:43:20;99125.09;;;13.63;58.91
37066;BME280;22981;43.080;25.550;2024-02-26T06:45:48;99122.72;;;13.67;58.72
37066;BME280;22981;43.080;25.550;2024-02-26T06:48:15;99121.16;;;13.71;58.39
37066;BME280;22981;43.080;25.550;2024-02-26T06:50:43;99120.41;;;13.75;57.88
37066;BME280;22981;43.080;25.550;2024-02-26T06:53:10;99127.20;;;13.81;57.69
37066;BME280;22981;43.080;25.550;2024-02-26T06:55:38;99123.19;;;13.83;57.63
37066;BME280;22981;43.080;25.550;2024-02-26T06:58:07;99124.09;;;13.89;57.27
37066;BME280;22981;43.080;25.550;2024-02-26T07:00:34;99117.69;;;13.95;56.66
37066;BME280;22981;43.080;25.550;2024-02-26T07:03:02;99118.06;;;14.03;56.12
37066;BME280;22981;43.080;25.550;2024-02-26T07:05:30;99118.70;;;14.11;55.71
37066;BME280;22981;43.080;25.550;2024-02-26T07:07:57;99120.95;;;14.19;55.06
37066;BME280;22981;43.080;25.550;2024-02-26T07:10:25;99114.28;;;14.24;55.05
37066;BME280;22981;43.080;25.550;2024-02-26T07:12:52;99121.88;;;14.29;54.98
37066;BME280;22981;43.080;25.550;2024-02-26T07:15:20;99123.03;;;14.36;54.86
37066;BME280;22981;43.080;25.550;2024-02-26T07:17:47;99121.20;;;14.42;54.53
37066;BME280;22981;43.080;25.550;2024-02-26T07:20:16;99124.02;;;14.49;54.36
37066;BME280;22981;43.080;25.550;2024-02-26T07:22:44;99125.41;;;14.55;54.28
37066;BME280;22981;43.080;25.550;2024-02-26T07:25:12;99124.41;;;14.61;54.17
37066;BME280;22981;43.080;25.550;2024-02-26T07:27:40;99128.23;;;14.65;54.09
37066;BME280;22981;43.080;25.550;2024-02-26T07:30:08;99133.13;;;14.70;54.13
37066;BME280;22981;43.080;25.550;2024-02-26T07:32:36;99125.08;;;14.75;54.24
37066;BME280;22981;43.080;25.550;2024-02-26T07:35:03;99126.74;;;14.82;54.18
37066;BME280;22981;43.080;25.550;2024-02-26T07:37:31;99128.70;;;14.86;54.02
37066;BME280;22981;43.080;25.550;2024-02-26T07:39:59;99130.90;;;14.92;54.04
37066;BME280;22981;43.080;25.550;2024-02-26T07:42:26;99133.90;;;14.95;54.10
37066;BME280;22981;43.080;25.550;2024-02-26T07:44:54;99133.94;;;15.00;54.07
37066;BME280;22981;43.080;25.550;2024-02-26T07:47:22;99128.04;;;15.03;54.02
37066;BME280;22981;43.080;25.550;2024-02-26T07:49:50;99131.55;;;15.07;53.83
37066;BME280;22981;43.080;25.550;2024-02-26T07:52:17;99124.03;;;15.11;53.76
37066;BME280;22981;43.080;25.550;2024-02-26T07:54:45;99129.77;;;15.17;53.67
37066;BME280;22981;43.080;25.550;2024-02-26T07:57:12;99130.06;;;15.23;53.32
37066;BME280;22981;43.080;25.550;2024-02-26T07:59:41;99128.78;;;15.31;53.21
37066;BME280;22981;43.080;25.550;2024-02-26T08:02:11;99135.59;;;15.41;52.75
37066;BME280;22981;43.080;25.550;2024-02-26T08:04:38;99132.44;;;15.52;52.41
37066;BME280;22981;43.080;25.550;2024-02-26T08:07:06;99131.74;;;15.64;52.10
37066;BME280;22981;43.080;25.550;2024-02-26T08:09:34;99141.02;;;15.84;51.75
37066;BME280;22981;43.080;25.550;2024-02-26T08:12:01;99137.39;;;16.10;51.35
37066;BME280;22981;43.080;25.550;2024-02-26T08:14:29;99145.05;;;16.44;50.73
37066;BME280;22981;43.080;25.550;2024-02-26T08:16:58;99137.86;;;16.77;50.06
37066;BME280;22981;43.080;25.550;2024-02-26T08:19:26;99128.42;;;17.08;49.50
37066;BME280;22981;43.080;25.550;2024-02-26T08:21:54;99130.03;;;17.37;48.45
37066;BME280;22981;43.080;25.550;2024-02-26T08:24:22;99124.60;;;17.58;47.61
37066;BME280;22981;43.080;25.550;2024-02-26T08:26:50;99128.91;;;17.79;47.27
37066;BME280;22981;43.080;25.550;2024-02-26T08:29:17;99116.38;;;18.01;47.11
37066;BME280;22981;43.080;25.550;2024-02-26T08:31:45;99121.70;;;18.24;46.52
37066;BME280;22981;43.080;25.550;2024-02-26T08:34:13;99118.08;;;18.41;46.03
37066;BME280;22981;43.080;25.550;2024-02-26T08:36:40;99119.88;;;18.61;46.20
37066;BME280;22981;43.080;25.550;2024-02-26T08:39:09;99125.50;;;18.80;45.37
37066;BME280;22981;43.080;25.550;2024-02-26T08:41:37;99127.02;;;18.91;44.80
37066;BME280;22981;43.080;25.550;2024-02-26T08:44:04;99126.68;;;19.00;44.12
37066;BME280;22981;43.080;25.550;2024-02-26T08:46:32;99120.34;;;19.13;43.75
37066;BME280;22981;43.080;25.550;2024-02-26T08:49:00;99124.11;;;19.17;42.73
37066;BME280;22981;43.080;25.550;2024-02-26T08:51:27;99125.66;;;19.25;42.27
37066;BME280;22981;43.080;25.550;2024-02-26T08:53:55;99126.97;;;19.33;41.37
37066;BME280;22981;43.080;25.550;2024-02-26T08:56:22;99123.09;;;19.39;41.55
37066;BME280;22981;43.080;25.550;2024-02-26T08:58:50;99125.13;;;19.52;40.83
37066;BME280;22981;43.080;25.550;2024-02-26T09:01:19;99129.44;;;19.59;40.01
37066;BME280;22981;43.080;25.550;2024-02-26T09:03:47;99127.83;;;19.58;39.26
37066;BME280;22981;43.080;25.550;2024-02-26T09:06:17;99125.89;;;19.63;39.04
37066;BME280;22981;43.080;25.550;2024-02-26T09:08:45;99125.59;;;19.65;37.63
37066;BME280;22981;43.080;25.550;2024-02-26T09:11:12;99132.30;;;19.75;37.72
37066;BME280;22981;43.080;25.550;2024-02-26T09:13:40;99125.13;;;19.84;37.12
37066;BME280;22981;43.080;25.550;2024-02-26T09:16:08;99124.00;;;19.88;36.68
37066;BME280;22981;43.080;25.550;2024-02-26T09:18:36;99123.64;;;19.94;36.76
37066;BME280;22981;43.080;25.550;2024-02-26T09:21:06;99128.48;;;20.00;36.51
37066;BME280;22981;43.080;25.550;2024-02-26T09:23:34;99132.03;;;19.98;36.06
37066;BME280;22981;43.080;25.550;2024-02-26T09:26:01;99131.45;;;20.01;36.33
37066;BME280;22981;43.080;25.550;2024-02-26T09:28:29;99132.90;;;19.93;35.70
37066;BME280;22981;43.080;25.550;2024-02-26T09:30:58;99137.11;;;19.81;35.74
37066;BME280;22981;43.080;25.550;2024-02-26T09:33:26;99129.59;;;19.72;35.58
37066;BME280;22981;43.080;25.550;2024-02-26T09:35:53;99123.66;;;19.68;35.64
37066;BME280;22981;43.080;25.550;2024-02-26T09:38:21;99122.61;;;19.66;35.65
37066;BME280;22981;43.080;25.550;2024-02-26T09:40:48;99121.29;;;19.59;36.03
37066;BME280;22981;43.080;25.550;2024-02-26T09:43:18;99120.24;;;19.55;36.44
37066;BME280;22981;43.080;25.550;2024-02-26T09:45:49;99123.34;;;19.43;36.36
37066;BME280;22981;43.080;25.550;2024-02-26T09:48:17;99127.02;;;19.25;36.43
37066;BME280;22981;43.080;25.550;2024-02-26T09:50:45;99128.48;;;19.13;35.88
37066;BME280;22981;43.080;25.550;2024-02-26T09:53:13;99119.13;;;18.97;35.39
37066;BME280;22981;43.080;25.550;2024-02-26T09:55:41;99114.86;;;18.89;35.96
37066;BME280;22981;43.080;25.550;2024-02-26T09:58:09;99115.88;;;18.95;36.78
37066;BME280;22981;43.080;25.550;2024-02-26T10:00:39;99107.34;;;19.10;36.68
37066;BME280;22981;43.080;25.550;2024-02-26T10:03:10;99106.50;;;19.43;36.46
37066;BME280;22981;43.080;25.550;2024-02-26T10:05:39;99105.01;;;19.85;36.00
37066;BME280;22981;43.080;25.550;2024-02-26T10:08:09;99100.87;;;20.33;35.68
37066;BME280;22981;43.080;25.550;2024-02-26T10:10:38;99100.47;;;20.64;34.89
37066;BME280;22981;43.080;25.550;2024-02-26T10:13:06;99082.73;;;20.85;35.03
37066;BME280;22981;43.080;25.550;2024-02-26T10:15:36;99091.25;;;21.14;34.84
37066;BME280;22981;43.080;25.550;2024-02-26T10:18:07;99085.43;;;21.20;33.60
37066;BME280;22981;43.080;25.550;2024-02-26T10:20:34;99079.09;;;21.25;33.39
37066;BME280;22981;43.080;25.550;2024-02-26T10:23:05;99067.58;;;21.28;33.27
37066;BME280;22981;43.080;25.550;2024-02-26T10:25:32;99071.13;;;21.29;32.61
37066;BME280;22981;43.080;25.550;2024-02-26T10:28:00;99066.22;;;21.28;32.19
37066;BME280;22981;43.080;25.550;2024-02-26T10:30:31;99066.92;;;21.36;31.78
37066;BME280;22981;43.080;25.550;2024-02-26T10:32:59;99071.28;;;21.37;31.46
37066;BME280;22981;43.080;25.550;2024-02-26T10:35:26;99065.63;;;21.34;30.94
37066;BME280;22981;43.080;25.550;2024-02-26T10:37:55;99066.49;;;21.29;30.72
37066;BME280;22981;43.080;25.550;2024-02-26T10:40:22;99050.84;;;21.21;30.17
37066;BME280;22981;43.080;25.550;2024-02-26T10:42:50;99052.55;;;21.17;29.85
37066;BME280;22981;43.080;25.550;2024-02-26T10:45:18;99051.78;;;21.14;29.99
37066;BME280;22981;43.080;25.550;2024-02-26T10:47:46;99043.37;;;21.13;29.89
37066;BME280;22981;43.080;25.550;2024-02-26T10:50:14;99025.49;;;21.07;29.19
37066;BME280;22981;43.080;25.550;2024-02-26T10:52:43;99030.06;;;21.11;29.94
37066;BME280;22981;43.080;25.550;2024-02-26T10:55:15;99026.23;;;21.12;29.10
37066;BME280;22981;43.080;25.550;2024-02-26T10:57:48;99023.22;;;21.28;29.50
37066;BME280;22981;43.080;25.550;2024-02-26T11:00:17;99027.96;;;21.38;28.76
37066;BME280;22981;43.080;25.550;2024-02-26T11:02:46;99040.97;;;21.25;28.38
37066;BME280;22981;43.080;25.550;2024-02-26T11:05:15;99027.38;;;21.09;28.17
37066;BME280;22981;43.080;25.550;2024-02-26T11:07:45;99019.18;;;21.11;28.69
37066;BME280;22981;43.080;25.550;2024-02-26T11:10:13;99011.52;;;21.27;28.05
37066;BME280;22981;43.080;25.550;2024-02-26T11:12:43;99006.11;;;21.41;28.50
37066;BME280;22981;43.080;25.550;2024-02-26T11:15:11;99006.87;;;21.58;28.15
37066;BME280;22981;43.080;25.550;2024-02-26T11:17:39;99002.33;;;21.81;28.39
37066;BME280;22981;43.080;25.550;2024-02-26T11:20:10;99003.98;;;21.79;27.21
37066;BME280;22981;43.080;25.550;2024-02-26T11:22:39;98991.91;;;21.71;27.67
37066;BME280;22981;43.080;25.550;2024-02-26T11:25:08;98975.73;;;21.75;27.34
37066;BME280;22981;43.080;25.550;2024-02-26T11:27:40;98992.48;;;21.82;27.63
37066;BME280;22981;43.080;25.550;2024-02-26T11:30:09;98984.75;;;21.87;28.04
37066;BME280;22981;43.080;25.550;2024-02-26T11:32:38;98981.42;;;22.01;27.86
37066;BME280;22981;43.080;25.550;2024-02-26T11:35:06;98994.33;;;21.98;27.63
37066;BME280;22981;43.080;25.550;2024-02-26T11:37:34;98987.15;;;22.02;27.88
37066;BME280;22981;43.080;25.550;2024-02-26T11:40:02;98980.58;;;22.03;27.16
37066;BME280;22981;43.080;25.550;2024-02-26T11:42:30;98979.89;;;21.97;27.62
37066;BME280;22981;43.080;25.550;2024-02-26T11:44:57;98980.25;;;21.93;27.54
37066;BME280;22981;43.080;25.550;2024-02-26T11:47:28;98978.61;;;21.81;27.26
37066;BME280;22981;43.080;25.550;2024-02-26T11:49:55;98972.18;;;21.63;27.54
37066;BME280;22981;43.080;25.550;2024-02-26T11:52:23;98967.94;;;21.57;27.40
37066;BME280;22981;43.080;25.550;2024-02-26T11:54:59;98969.50;;;21.61;27.66
37066;BME280;22981;43.080;25.550;2024-02-26T11:57:30;98966.30;;;21.70;27.67
37066;BME280;22981;43.080;25.550;2024-02-26T12:00:13;98967.38;;;21.71;27.47
37066;BME280;22981;43.080;25.550;2024-02-26T12:02:52;98972.07;;;21.68;27.79
37066;BME280;22981;43.080;25.550;2024-02-26T12:05:32;98962.38;;;21.62;27.47
37066;BME280;22981;43.080;25.550;2024-02-26T12:08:04;98975.00;;;21.44;27.70
37066;BME280;22981;43.080;25.550;2024-02-26T12:10:38;98961.92;;;21.30;27.90
37066;BME280;22981;43.080;25.550;2024-02-26T12:13:08;98970.68;;;21.13;28.16
37066;BME280;22981;43.080;25.550;2024-02-26T12:15:44;98967.48;;;20.95;28.23
37066;BME280;22981;43.080;25.550;2024-02-26T12:18:17;98973.25;;;20.77;28.50
37066;BME280;22981;43.080;25.550;2024-02-26T12:20:44;98974.73;;;20.53;27.90
37066;BME280;22981;43.080;25.550;2024-02-26T12:23:16;98981.26;;;20.33;28.18
37066;BME280;22981;43.080;25.550;2024-02-26T12:25:44;98989.69;;;20.15;28.06
37066;BME280;22981;43.080;25.550;2024-02-26T12:28:14;98982.90;;;19.96;27.78
37066;BME280;22981;43.080;25.550;2024-02-26T12:30:42;98990.98;;;19.80;27.90
37066;BME280;22981;43.080;25.550;2024-02-26T12:33:09;98990.37;;;19.64;27.80
37066;BME280;22981;43.080;25.550;2024-02-26T12:35:37;98983.44;;;19.53;28.32
37066;BME280;22981;43.080;25.550;2024-02-26T12:38:05;98992.70;;;19.49;28.51
37066;BME280;22981;43.080;25.550;2024-02-26T12:40:33;98992.72;;;19.47;28.41
37066;BME280;22981;43.080;25.550;2024-02-26T12:43:00;98987.61;;;19.43;28.60
37066;BME280;22981;43.080;25.550;2024-02-26T12:45:29;98985.45;;;19.42;28.85
37066;BME280;22981;43.080;25.550;2024-02-26T12:47:56;98980.27;;;19.43;28.79
37066;BME280;22981;43.080;25.550;2024-02-26T12:50:24;98980.44;;;19.52;28.84
37066;BME280;22981;43.080;25.550;2024-02-26T12:52:52;98995.03;;;19.59;28.71
37066;BME280;22981;43.080;25.550;2024-02-26T12:55:21;98988.22;;;19.61;28.45
37066;BME280;22981;43.080;25.550;2024-02-26T12:57:50;98990.98;;;19.56;28.31